createdAt,value
2023-04-26T00:00:45.820Z,11.99
2023-04-26T00:02:19.824Z,11.97
2023-04-26T00:03:53.272Z,12.00
2023-04-26T00:05:27.226Z,12.00
2023-04-26T00:07:00.615Z,12.01
2023-04-26T00:08:34.164Z,12.01
2023-04-26T00:10:08.488Z,12.03
2023-04-26T00:11:40.651Z,12.06
2023-04-26T00:13:15.195Z,12.07
2023-04-26T00:14:47.827Z,12.10
2023-04-26T00:16:21.131Z,12.10
2023-04-26T00:17:54.452Z,12.08
2023-04-26T00:19:27.726Z,12.12
2023-04-26T00:21:01.115Z,12.09
2023-04-26T00:22:33.273Z,12.11
2023-04-26T00:24:07.226Z,12.06
2023-04-26T00:25:40.493Z,12.06
2023-04-26T00:27:13.879Z,12.06
2023-04-26T00:28:48.765Z,12.05
2023-04-26T00:30:22.516Z,12.02
2023-04-26T00:31:55.962Z,12.04
2023-04-26T00:33:29.463Z,12.04
2023-04-26T00:35:05.032Z,12.06
2023-04-26T00:36:38.588Z,12.06
2023-04-26T00:38:11.744Z,12.05
2023-04-26T00:39:45.162Z,12.04
2023-04-26T00:41:17.282Z,12.00
2023-04-26T00:42:50.564Z,11.99
2023-04-26T00:44:24.109Z,11.97
2023-04-26T00:45:57.756Z,11.97
2023-04-26T00:47:31.085Z,11.96
2023-04-26T00:49:04.990Z,11.93
2023-04-26T00:50:38.328Z,11.94
2023-04-26T00:52:12.604Z,11.89
2023-04-26T00:53:45.899Z,11.85
2023-04-26T00:55:20.246Z,11.84
2023-04-26T00:56:53.350Z,11.83
2023-04-26T00:58:27.226Z,11.81
2023-04-26T01:00:01.841Z,11.77
2023-04-26T01:01:35.940Z,11.74
2023-04-26T01:03:09.417Z,11.73
2023-04-26T01:04:42.982Z,11.67
2023-04-26T01:06:17.952Z,11.70
2023-04-26T01:07:51.504Z,11.71
2023-04-26T01:09:24.674Z,11.73
2023-04-26T01:10:58.417Z,11.79
2023-04-26T01:12:31.619Z,11.83
2023-04-26T01:14:04.168Z,11.85
2023-04-26T01:15:40.145Z,11.88
2023-04-26T01:17:13.725Z,11.87
2023-04-26T01:18:52.513Z,11.87
2023-04-26T01:20:27.130Z,11.85
2023-04-26T01:22:00.961Z,11.85
2023-04-26T01:23:35.971Z,11.83
2023-04-26T01:25:12.558Z,11.82
2023-04-26T01:26:46.644Z,11.73
2023-04-26T01:28:22.373Z,11.69
2023-04-26T01:29:55.778Z,11.69
2023-04-26T01:31:42.884Z,11.70
2023-04-26T01:33:22.822Z,11.68
2023-04-26T01:35:02.970Z,11.69
2023-04-26T01:36:36.093Z,11.67
2023-04-26T01:38:09.569Z,11.68
2023-04-26T01:39:44.212Z,11.66
2023-04-26T01:41:18.224Z,11.63
2023-04-26T01:42:51.346Z,11.65
2023-04-26T01:44:23.605Z,11.67
2023-04-26T01:45:57.003Z,11.67
2023-04-26T01:47:36.273Z,11.67
2023-04-26T01:49:09.477Z,11.66
2023-04-26T01:50:41.739Z,11.64
2023-04-26T01:52:15.079Z,11.62
2023-04-26T01:53:47.229Z,11.53
2023-04-26T01:55:21.738Z,11.55
2023-04-26T01:56:55.031Z,11.53
2023-04-26T01:58:27.319Z,11.55
2023-04-26T02:00:02.452Z,11.54
2023-04-26T02:01:46.446Z,11.51
2023-04-26T02:03:19.879Z,11.51
2023-04-26T02:04:53.302Z,11.49
2023-04-26T02:06:29.637Z,11.44
2023-04-26T02:08:02.848Z,11.40
2023-04-26T02:09:36.097Z,11.38
2023-04-26T02:11:10.816Z,11.38
2023-04-26T02:12:44.013Z,11.34
2023-04-26T02:14:17.177Z,11.32
2023-04-26T02:15:50.474Z,11.28
2023-04-26T02:17:26.551Z,11.28
2023-04-26T02:19:00.545Z,11.25
2023-04-26T02:20:33.681Z,11.18
2023-04-26T02:22:06.548Z,11.16
2023-04-26T02:23:39.870Z,11.16
2023-04-26T02:25:13.042Z,11.16
2023-04-26T02:26:47.540Z,11.17
2023-04-26T02:28:21.236Z,11.13
2023-04-26T02:29:53.440Z,11.11
2023-04-26T02:31:27.991Z,11.07
2023-04-26T02:33:02.311Z,11.01
2023-04-26T02:34:36.093Z,10.93
2023-04-26T02:36:08.947Z,10.89
2023-04-26T02:37:42.076Z,10.90
2023-04-26T02:39:14.281Z,10.88
2023-04-26T02:40:47.610Z,10.83
2023-04-26T02:42:24.238Z,10.81
2023-04-26T02:43:57.540Z,10.83
2023-04-26T02:45:30.955Z,10.87
2023-04-26T02:47:05.400Z,10.86
2023-04-26T02:48:38.782Z,10.87
2023-04-26T02:50:12.492Z,10.84
2023-04-26T02:51:45.857Z,10.79
2023-04-26T02:53:18.249Z,10.73
2023-04-26T02:54:51.505Z,10.69
2023-04-26T02:56:24.746Z,10.66
2023-04-26T02:57:59.304Z,10.67
2023-04-26T02:59:31.728Z,10.70
2023-04-26T03:01:05.791Z,10.72
2023-04-26T03:02:39.197Z,10.72
2023-04-26T03:04:12.641Z,10.69
2023-04-26T03:05:46.480Z,10.65
2023-04-26T03:07:20.046Z,10.68
2023-04-26T03:08:53.453Z,10.67
2023-04-26T03:10:26.903Z,10.62
2023-04-26T03:12:00.457Z,10.62
2023-04-26T03:13:35.291Z,10.67
2023-04-26T03:15:08.329Z,10.67
2023-04-26T03:16:45.679Z,10.62
2023-04-26T03:18:18.283Z,10.58
2023-04-26T03:19:51.560Z,10.57
2023-04-26T03:21:24.967Z,10.55
2023-04-26T03:22:58.235Z,10.53
2023-04-26T03:24:32.977Z,10.54
2023-04-26T03:26:06.560Z,10.55
2023-04-26T03:27:39.700Z,10.57
2023-04-26T03:29:14.587Z,10.57
2023-04-26T03:30:50.165Z,10.57
2023-04-26T03:32:23.511Z,10.51
2023-04-26T03:33:56.022Z,10.55
2023-04-26T03:35:29.644Z,10.54
2023-04-26T03:37:03.539Z,10.55
2023-04-26T03:38:37.018Z,10.55
2023-04-26T03:40:10.022Z,10.54
2023-04-26T03:41:43.449Z,10.51
2023-04-26T03:43:19.125Z,10.51
2023-04-26T03:44:53.928Z,10.51
2023-04-26T03:46:28.707Z,10.51
2023-04-26T03:48:01.978Z,10.51
2023-04-26T03:49:35.978Z,10.51
2023-04-26T03:51:09.513Z,10.52
2023-04-26T03:52:43.197Z,10.52
2023-04-26T03:54:17.017Z,10.50
2023-04-26T03:55:50.490Z,10.47
2023-04-26T03:57:23.677Z,10.41
2023-04-26T03:58:57.114Z,10.34
2023-04-26T04:00:32.454Z,10.33
2023-04-26T04:02:06.463Z,10.34
2023-04-26T04:03:41.256Z,10.37
2023-04-26T04:05:15.509Z,10.38
2023-04-26T04:06:48.827Z,10.39
2023-04-26T04:08:22.476Z,10.42
2023-04-26T04:09:55.738Z,10.48
2023-04-26T04:11:28.974Z,10.47
2023-04-26T04:13:02.727Z,10.49
2023-04-26T04:14:37.102Z,10.48
2023-04-26T04:16:11.957Z,10.39
2023-04-26T04:17:45.239Z,10.39
2023-04-26T04:19:18.555Z,10.46
2023-04-26T04:20:53.539Z,10.47
2023-04-26T04:22:26.712Z,10.50
2023-04-26T04:23:58.846Z,10.54
2023-04-26T04:25:33.433Z,10.58
2023-04-26T04:27:10.193Z,10.64
2023-04-26T04:28:45.703Z,10.69
2023-04-26T04:30:19.061Z,10.77
2023-04-26T04:31:53.774Z,10.82
2023-04-26T04:33:28.744Z,10.81
2023-04-26T04:35:03.680Z,10.79
2023-04-26T04:36:38.845Z,10.80
2023-04-26T04:38:12.231Z,10.83
2023-04-26T04:39:45.841Z,10.86
2023-04-26T04:41:20.416Z,10.87
2023-04-26T04:42:53.645Z,10.84
2023-04-26T04:44:28.078Z,10.83
2023-04-26T04:46:02.421Z,10.82
2023-04-26T04:47:37.981Z,10.89
2023-04-26T04:49:12.307Z,10.92
2023-04-26T04:50:45.471Z,11.01
2023-04-26T04:52:20.262Z,11.08
2023-04-26T04:53:54.666Z,11.22
2023-04-26T04:55:28.018Z,11.54
2023-04-26T04:57:01.300Z,11.96
2023-04-26T04:58:35.145Z,12.40
2023-04-26T05:00:10.633Z,12.86
2023-04-26T05:01:50.798Z,13.33
2023-04-26T05:03:26.749Z,13.81
2023-04-26T05:05:01.712Z,14.21
2023-04-26T05:06:34.938Z,14.53
2023-04-26T05:08:09.017Z,14.79
2023-04-26T05:09:43.097Z,15.08
2023-04-26T05:11:17.127Z,15.51
2023-04-26T05:12:50.301Z,15.83
2023-04-26T05:14:23.775Z,16.10
2023-04-26T05:15:56.941Z,16.43
2023-04-26T05:17:32.589Z,16.63
2023-04-26T05:19:15.376Z,16.68
2023-04-26T05:20:48.567Z,16.88
2023-04-26T05:22:22.415Z,17.10
2023-04-26T05:23:56.626Z,17.22
2023-04-26T05:25:29.950Z,17.31
2023-04-26T05:27:17.884Z,17.50
2023-04-26T05:29:15.037Z,17.64
2023-04-26T05:31:01.494Z,17.75
2023-04-26T05:32:52.438Z,17.79
2023-04-26T05:34:53.416Z,17.71
2023-04-26T05:36:29.184Z,17.63
2023-04-26T05:38:02.150Z,17.70
2023-04-26T05:39:36.365Z,17.87
2023-04-26T05:41:10.119Z,17.89
2023-04-26T05:42:43.368Z,17.91
2023-04-26T05:44:17.266Z,17.68
2023-04-26T05:45:54.454Z,17.75
2023-04-26T05:47:28.191Z,18.00
2023-04-26T05:49:01.469Z,17.97
2023-04-26T05:50:38.841Z,18.08
2023-04-26T05:52:13.334Z,18.42
2023-04-26T05:53:46.868Z,18.74
2023-04-26T05:55:21.789Z,18.90
2023-04-26T05:56:57.771Z,18.93
2023-04-26T05:58:33.856Z,18.83
2023-04-26T06:00:10.082Z,19.04
2023-04-26T06:01:51.082Z,19.21
2023-04-26T06:03:24.515Z,19.37
2023-04-26T06:04:58.177Z,19.29
2023-04-26T06:06:34.109Z,19.05
2023-04-26T06:08:08.010Z,19.06
2023-04-26T06:09:41.289Z,19.46
2023-04-26T06:11:15.023Z,19.73
2023-04-26T06:12:49.741Z,20.01
2023-04-26T06:16:03.225Z,20.06
2023-04-26T06:17:36.477Z,20.17
2023-04-26T06:19:10.169Z,20.41
2023-04-26T06:20:43.383Z,20.65
2023-04-26T06:22:17.989Z,20.18
2023-04-26T06:23:51.330Z,20.14
2023-04-26T06:25:25.940Z,20.08
2023-04-26T06:26:59.144Z,20.16
2023-04-26T06:28:32.305Z,20.27
2023-04-26T06:30:06.691Z,20.52
2023-04-26T06:31:42.295Z,20.76
2023-04-26T06:33:15.491Z,21.04
2023-04-26T06:34:48.659Z,21.23
2023-04-26T06:36:21.862Z,21.42
2023-04-26T06:37:56.676Z,21.45
2023-04-26T06:39:30.101Z,21.35
2023-04-26T06:41:03.288Z,21.31
2023-04-26T06:42:36.792Z,21.47
2023-04-26T06:44:33.287Z,21.31
2023-04-26T06:46:10.989Z,20.68
2023-04-26T06:47:45.839Z,20.81
2023-04-26T06:49:19.027Z,20.96
2023-04-26T06:50:53.054Z,21.11
2023-04-26T06:52:26.328Z,21.00
2023-04-26T06:54:01.082Z,20.73
2023-04-26T06:55:34.368Z,20.89
2023-04-26T06:57:08.027Z,21.06
2023-04-26T06:58:41.198Z,21.24
2023-04-26T07:00:15.641Z,21.18
2023-04-26T07:01:49.162Z,21.47
2023-04-26T07:03:22.880Z,21.45
2023-04-26T07:04:56.366Z,21.31
2023-04-26T07:06:29.842Z,21.64
2023-04-26T07:08:03.208Z,21.47
2023-04-26T07:09:37.937Z,20.91
2023-04-26T07:11:11.581Z,20.83
2023-04-26T07:12:45.277Z,20.77
2023-04-26T07:14:19.056Z,21.05
2023-04-26T07:15:52.655Z,21.17
2023-04-26T07:17:25.858Z,21.24
2023-04-26T07:18:59.006Z,21.09
2023-04-26T07:20:32.204Z,20.59
2023-04-26T07:22:05.690Z,20.45
2023-04-26T07:23:39.052Z,20.15
2023-04-26T07:25:13.772Z,20.45
2023-04-26T07:26:47.152Z,20.76
2023-04-26T07:28:20.864Z,21.06
2023-04-26T07:29:56.429Z,21.00
2023-04-26T07:31:29.573Z,21.25
2023-04-26T07:33:03.220Z,21.12
2023-04-26T07:34:37.299Z,21.03
2023-04-26T07:36:10.773Z,21.10
2023-04-26T07:37:44.896Z,20.79
2023-04-26T07:39:18.075Z,20.64
2023-04-26T07:40:53.636Z,20.53
2023-04-26T07:42:26.888Z,20.30
2023-04-26T07:44:00.172Z,20.15
2023-04-26T07:45:34.122Z,20.40
2023-04-26T07:47:12.818Z,20.62
2023-04-26T07:48:45.980Z,20.70
2023-04-26T07:50:19.363Z,20.75
2023-04-26T07:51:53.157Z,20.71
2023-04-26T07:53:26.652Z,20.86
2023-04-26T07:54:59.901Z,21.16
2023-04-26T07:56:34.453Z,21.19
2023-04-26T07:58:08.215Z,20.96
2023-04-26T07:59:41.586Z,20.91
2023-04-26T08:01:16.745Z,20.08
2023-04-26T08:02:50.346Z,19.42
2023-04-26T08:04:34.078Z,19.54
2023-04-26T08:06:09.001Z,19.82
2023-04-26T08:07:42.589Z,19.95
2023-04-26T08:09:15.772Z,20.43
2023-04-26T08:10:49.445Z,20.41
2023-04-26T08:12:26.167Z,19.95
2023-04-26T08:13:59.324Z,19.85
2023-04-26T08:15:32.643Z,19.87
2023-04-26T08:17:06.936Z,20.07
2023-04-26T08:18:40.518Z,19.95
2023-04-26T08:20:14.336Z,19.81
2023-04-26T08:21:47.510Z,19.53
2023-04-26T08:23:20.712Z,19.66
2023-04-26T08:24:56.535Z,19.51
2023-04-26T08:26:29.688Z,19.23
2023-04-26T08:28:04.587Z,18.89
2023-04-26T08:29:37.756Z,18.66
2023-04-26T08:31:11.477Z,18.31
2023-04-26T08:32:45.630Z,17.93
2023-04-26T08:34:18.859Z,18.33
2023-04-26T08:35:52.539Z,18.76
2023-04-26T08:37:26.944Z,19.06
2023-04-26T08:39:01.403Z,18.92
2023-04-26T08:40:35.083Z,18.97
2023-04-26T08:42:15.753Z,18.80
2023-04-26T08:43:51.347Z,18.69
2023-04-26T08:45:26.891Z,18.42
2023-04-26T08:47:05.126Z,18.31
2023-04-26T08:48:39.149Z,18.48
2023-04-26T08:50:14.881Z,18.97
2023-04-26T08:51:48.890Z,19.11
2023-04-26T08:53:22.001Z,19.36
2023-04-26T08:54:56.381Z,19.80
2023-04-26T08:56:29.884Z,19.85
2023-04-26T08:58:03.834Z,20.07
2023-04-26T08:59:39.750Z,19.84
2023-04-26T09:01:16.283Z,19.82
2023-04-26T09:02:52.156Z,20.25
2023-04-26T09:04:26.015Z,20.38
2023-04-26T09:06:02.548Z,20.47
2023-04-26T09:07:41.590Z,20.20
2023-04-26T09:09:19.576Z,19.97
2023-04-26T09:10:52.827Z,19.99
2023-04-26T09:12:26.502Z,20.42
2023-04-26T09:13:59.698Z,20.81
2023-04-26T09:15:34.535Z,21.06
2023-04-26T09:17:07.995Z,21.24
2023-04-26T09:18:51.069Z,21.48
2023-04-26T09:20:27.962Z,21.77
2023-04-26T09:22:02.165Z,21.73
2023-04-26T09:23:36.184Z,21.74
2023-04-26T09:25:10.306Z,21.46
2023-04-26T09:26:43.515Z,21.24
2023-04-26T09:28:24.826Z,21.30
2023-04-26T09:30:02.859Z,20.97
2023-04-26T09:31:41.875Z,21.23
2023-04-26T09:33:15.326Z,21.67
2023-04-26T09:34:48.882Z,21.66
2023-04-26T09:36:22.770Z,21.77
2023-04-26T09:38:02.983Z,21.81
2023-04-26T09:39:40.558Z,21.65
2023-04-26T09:41:13.945Z,21.66
2023-04-26T09:42:47.863Z,21.55
2023-04-26T09:44:24.602Z,21.44
2023-04-26T09:46:00.251Z,20.93
2023-04-26T09:47:34.893Z,20.42
2023-04-26T09:49:08.144Z,20.44
2023-04-26T09:50:41.637Z,20.51
2023-04-26T09:52:14.831Z,20.44
2023-04-26T09:53:51.044Z,20.50
2023-04-26T09:55:35.271Z,20.28
2023-04-26T09:57:08.894Z,20.34
2023-04-26T09:58:59.260Z,20.15
2023-04-26T10:00:32.937Z,20.11
2023-04-26T10:02:08.835Z,19.95
2023-04-26T10:03:43.909Z,19.89
2023-04-26T10:05:17.912Z,19.83
2023-04-26T10:06:51.202Z,20.04
2023-04-26T10:08:24.919Z,19.89
2023-04-26T10:09:59.558Z,19.50
2023-04-26T10:11:33.042Z,19.58
2023-04-26T10:13:08.008Z,19.73
2023-04-26T10:14:41.576Z,19.79
2023-04-26T10:16:14.920Z,19.65
2023-04-26T10:17:49.650Z,19.68
2023-04-26T10:19:26.544Z,19.96
2023-04-26T10:21:06.233Z,20.11
2023-04-26T10:22:45.945Z,20.13
2023-04-26T10:24:20.004Z,19.69
2023-04-26T10:25:53.706Z,19.53
2023-04-26T10:27:53.293Z,19.40
2023-04-26T10:29:28.158Z,19.51
2023-04-26T10:31:02.021Z,19.54
2023-04-26T10:32:55.236Z,19.63
2023-04-26T10:34:31.901Z,19.61
2023-04-26T10:36:09.196Z,19.59
2023-04-26T10:38:12.317Z,19.51
2023-04-26T10:39:47.254Z,19.69
2023-04-26T10:41:34.230Z,19.68
2023-04-26T10:43:29.245Z,19.70
2023-04-26T10:45:27.263Z,19.85
2023-04-26T10:47:00.635Z,19.55
2023-04-26T10:48:33.884Z,19.46
2023-04-26T10:50:10.498Z,19.53
2023-04-26T10:52:13.790Z,19.62
2023-04-26T10:54:02.818Z,19.54
2023-04-26T10:55:43.412Z,19.47
2023-04-26T10:57:17.385Z,19.24
2023-04-26T10:58:51.218Z,19.29
2023-04-26T11:00:32.903Z,19.36
2023-04-26T11:02:06.457Z,19.47
2023-04-26T11:03:39.949Z,19.36
2023-04-26T11:05:34.785Z,19.33
2023-04-26T11:07:08.370Z,19.43
2023-04-26T11:08:41.851Z,19.20
2023-04-26T11:10:24.406Z,19.05
2023-04-26T11:11:57.522Z,18.82
2023-04-26T11:13:32.235Z,18.61
2023-04-26T11:15:06.182Z,18.73
2023-04-26T11:16:39.454Z,18.84
2023-04-26T11:18:12.918Z,19.03
2023-04-26T11:19:48.232Z,19.05
2023-04-26T11:21:23.189Z,19.17
2023-04-26T11:22:56.448Z,19.09
2023-04-26T11:24:32.119Z,18.96
2023-04-26T11:26:06.624Z,18.94
2023-04-26T11:27:39.881Z,19.00
2023-04-26T11:29:20.209Z,19.08
2023-04-26T11:30:54.213Z,18.85
2023-04-26T11:32:28.030Z,18.68
2023-04-26T11:34:05.321Z,18.68
2023-04-26T11:35:40.660Z,18.54
2023-04-26T11:37:17.889Z,18.63
2023-04-26T11:38:51.699Z,18.64
2023-04-26T11:40:28.531Z,18.69
2023-04-26T11:42:06.964Z,18.76
2023-04-26T11:43:41.920Z,18.69
2023-04-26T11:45:17.456Z,18.76
2023-04-26T11:46:51.637Z,18.71
2023-04-26T11:48:25.969Z,18.62
2023-04-26T11:49:59.829Z,18.68
2023-04-26T11:51:34.325Z,18.68
2023-04-26T11:53:10.042Z,18.87
2023-04-26T11:54:44.483Z,19.04
2023-04-26T11:56:18.516Z,19.15
2023-04-26T11:57:51.773Z,19.22
2023-04-26T11:59:29.453Z,19.13
2023-04-26T12:01:03.682Z,18.94
2023-04-26T12:02:37.209Z,18.80
2023-04-26T12:04:11.552Z,18.72
2023-04-26T12:05:44.971Z,18.41
2023-04-26T12:07:20.694Z,18.45
2023-04-26T12:08:55.398Z,18.47
2023-04-26T12:10:29.658Z,18.42
2023-04-26T12:12:04.553Z,18.59
2023-04-26T12:13:41.137Z,18.80
2023-04-26T12:15:15.745Z,18.93
2023-04-26T12:16:49.031Z,18.96
2023-04-26T12:18:23.897Z,19.17
2023-04-26T12:19:57.116Z,19.23
2023-04-26T12:21:31.156Z,19.08
2023-04-26T12:23:06.828Z,19.21
2023-04-26T12:24:43.410Z,19.36
2023-04-26T12:26:17.156Z,19.44
2023-04-26T12:27:50.379Z,19.54
2023-04-26T12:29:23.750Z,19.65
2023-04-26T12:30:57.472Z,19.70
2023-04-26T12:32:30.974Z,19.76
2023-04-26T12:34:04.060Z,19.66
2023-04-26T12:35:37.284Z,19.71
2023-04-26T12:37:11.155Z,19.73
2023-04-26T12:38:44.369Z,19.52
2023-04-26T12:40:20.019Z,19.32
2023-04-26T12:41:53.500Z,19.21
2023-04-26T12:43:27.162Z,18.97
2023-04-26T12:45:00.743Z,18.92
2023-04-26T12:46:34.016Z,18.66
2023-04-26T12:48:07.639Z,18.37
2023-04-26T12:49:41.022Z,18.35
2023-04-26T12:51:14.221Z,18.36
2023-04-26T12:52:47.412Z,18.42
2023-04-26T12:54:20.583Z,18.40
2023-04-26T12:55:55.392Z,18.59
2023-04-26T12:57:28.562Z,18.59
2023-04-26T12:59:01.800Z,18.65
2023-04-26T13:00:35.175Z,18.61
2023-04-26T13:02:10.559Z,18.80
2023-04-26T13:03:44.034Z,18.72
2023-04-26T13:05:17.346Z,18.62
2023-04-26T13:06:50.670Z,18.51
2023-04-26T13:08:24.606Z,18.51
2023-04-26T13:09:58.038Z,18.57
2023-04-26T13:11:32.731Z,18.60
2023-04-26T13:13:06.017Z,18.79
2023-04-26T13:14:41.248Z,18.93
2023-04-26T13:16:14.503Z,19.19
2023-04-26T13:17:47.760Z,19.32
2023-04-26T13:19:20.906Z,19.45
2023-04-26T13:20:54.423Z,19.39
2023-04-26T13:22:27.589Z,19.11
2023-04-26T13:24:00.875Z,19.14
2023-04-26T13:25:34.005Z,19.24
2023-04-26T13:27:10.177Z,19.32
2023-04-26T13:28:43.361Z,19.43
2023-04-26T13:30:16.595Z,19.50
2023-04-26T13:31:49.822Z,19.35
2023-04-26T13:33:23.333Z,19.22
2023-04-26T13:34:57.020Z,19.23
2023-04-26T13:36:30.189Z,19.12
2023-04-26T13:38:03.272Z,19.18
2023-04-26T13:39:36.679Z,19.08
2023-04-26T13:41:10.232Z,19.21
2023-04-26T13:42:45.882Z,19.23
2023-04-26T13:44:19.949Z,19.12
2023-04-26T13:45:53.796Z,19.00
2023-04-26T13:47:28.091Z,19.13
2023-04-26T13:49:01.328Z,19.26
2023-04-26T13:50:34.562Z,19.34
2023-04-26T13:52:07.854Z,19.15
2023-04-26T13:53:40.994Z,19.09
2023-04-26T13:55:14.532Z,19.00
2023-04-26T13:56:47.676Z,19.04
2023-04-26T13:58:23.158Z,19.07
2023-04-26T13:59:56.378Z,18.97
2023-04-26T14:01:29.599Z,18.94
2023-04-26T14:03:03.147Z,18.96
2023-04-26T14:04:37.185Z,18.99
2023-04-26T14:06:10.622Z,19.01
2023-04-26T14:07:43.759Z,19.03
2023-04-26T14:09:17.454Z,18.95
2023-04-26T14:10:50.961Z,18.70
2023-04-26T14:12:24.105Z,18.57
2023-04-26T14:13:58.852Z,18.66
2023-04-26T14:15:32.018Z,18.52
2023-04-26T14:17:05.646Z,18.49
2023-04-26T14:18:44.913Z,18.47
2023-04-26T14:20:18.236Z,18.26
2023-04-26T14:21:51.403Z,18.25
2023-04-26T14:23:24.692Z,18.33
2023-04-26T14:24:57.918Z,18.36
2023-04-26T14:26:31.596Z,18.25
2023-04-26T14:28:04.784Z,18.24
2023-04-26T14:29:39.706Z,18.35
2023-04-26T14:31:12.914Z,18.27
2023-04-26T14:32:46.556Z,18.24
2023-04-26T14:34:19.690Z,18.24
2023-04-26T14:35:53.113Z,18.24
2023-04-26T14:37:26.230Z,18.17
2023-04-26T14:38:59.358Z,18.09
2023-04-26T14:40:32.513Z,18.12
2023-04-26T14:42:07.132Z,18.06
2023-04-26T14:43:40.236Z,18.00
2023-04-26T14:45:14.838Z,18.05
2023-04-26T14:46:48.465Z,18.10
2023-04-26T14:48:22.240Z,18.08
2023-04-26T14:49:55.290Z,18.08
2023-04-26T14:51:28.765Z,18.03
2023-04-26T14:53:01.899Z,17.96
2023-04-26T14:54:39.087Z,17.92
2023-04-26T14:56:12.293Z,17.91
2023-04-26T14:57:45.520Z,17.78
2023-04-26T14:59:18.647Z,17.73
2023-04-26T15:00:54.084Z,17.87
2023-04-26T15:02:27.454Z,17.83
2023-04-26T15:04:01.537Z,17.88
2023-04-26T15:05:35.025Z,17.68
2023-04-26T15:07:13.047Z,17.74
2023-04-26T15:08:54.137Z,17.60
2023-04-26T15:10:27.225Z,17.60
2023-04-26T15:12:00.321Z,17.67
2023-04-26T15:13:33.792Z,17.71
2023-04-26T15:15:08.233Z,17.63
2023-04-26T15:16:42.715Z,17.67
2023-04-26T15:18:16.127Z,17.69
2023-04-26T15:19:49.438Z,17.62
2023-04-26T15:21:22.663Z,17.62
2023-04-26T15:22:55.781Z,17.69
2023-04-26T15:24:28.942Z,17.76
2023-04-26T15:26:03.349Z,17.82
2023-04-26T15:27:37.147Z,17.82
2023-04-26T15:29:10.286Z,17.82
2023-04-26T15:30:43.541Z,17.79
2023-04-26T15:32:18.319Z,17.71
2023-04-26T15:33:51.697Z,17.65
2023-04-26T15:35:25.397Z,17.66
2023-04-26T15:37:00.749Z,17.65
2023-04-26T15:38:36.142Z,17.70
2023-04-26T15:40:11.095Z,17.69
2023-04-26T15:41:45.299Z,17.68
2023-04-26T15:43:18.722Z,17.65
2023-04-26T15:44:52.206Z,17.67
2023-04-26T15:46:25.589Z,17.61
2023-04-26T15:48:00.234Z,17.59
2023-04-26T15:49:33.513Z,17.61
2023-04-26T15:51:07.404Z,17.68
2023-04-26T15:52:41.421Z,17.56
2023-04-26T15:54:14.951Z,17.50
2023-04-26T15:55:48.061Z,17.46
2023-04-26T15:57:22.608Z,17.43
2023-04-26T15:58:57.298Z,17.46
2023-04-26T16:00:32.095Z,17.49
2023-04-26T16:02:06.290Z,17.59
2023-04-26T16:03:45.615Z,17.61
2023-04-26T16:05:20.877Z,17.58
2023-04-26T16:06:54.130Z,17.53
2023-04-26T16:08:39.488Z,17.54
2023-04-26T16:10:14.321Z,17.54
2023-04-26T16:11:48.116Z,17.48
2023-04-26T16:13:21.413Z,17.49
2023-04-26T16:14:54.583Z,17.44
2023-04-26T16:16:27.958Z,17.39
2023-04-26T16:18:01.639Z,17.41
2023-04-26T16:19:36.205Z,17.44
2023-04-26T16:21:10.028Z,17.46
2023-04-26T16:22:45.162Z,17.43
2023-04-26T16:24:18.696Z,17.38
2023-04-26T16:25:51.903Z,17.29
2023-04-26T16:27:26.727Z,17.20
2023-04-26T16:29:00.750Z,17.19
2023-04-26T16:30:33.979Z,17.09
2023-04-26T16:32:07.185Z,17.02
2023-04-26T16:33:40.343Z,17.07
2023-04-26T16:35:15.455Z,17.10
2023-04-26T16:36:48.679Z,17.08
2023-04-26T16:38:22.119Z,17.02
2023-04-26T16:39:56.772Z,17.01
2023-04-26T16:41:30.009Z,16.93
2023-04-26T16:43:03.381Z,16.96
2023-04-26T16:44:36.678Z,16.98
2023-04-26T16:46:09.981Z,16.97
2023-04-26T16:47:43.193Z,16.96
2023-04-26T16:49:19.682Z,16.94
2023-04-26T16:50:54.308Z,16.98
2023-04-26T16:52:27.352Z,16.90
2023-04-26T16:54:00.602Z,16.81
2023-04-26T16:55:33.974Z,16.75
2023-04-26T16:57:09.983Z,16.73
2023-04-26T16:58:43.326Z,16.72
2023-04-26T17:00:17.844Z,16.69
2023-04-26T17:01:52.140Z,16.71
2023-04-26T17:03:25.921Z,16.77
2023-04-26T17:04:59.520Z,16.64
2023-04-26T17:06:34.466Z,16.60
2023-04-26T17:08:08.045Z,16.63
2023-04-26T17:09:41.365Z,16.65
2023-04-26T17:11:16.200Z,16.64
2023-04-26T17:12:50.700Z,16.66
2023-04-26T17:14:24.147Z,16.63
2023-04-26T17:15:57.552Z,16.53
2023-04-26T17:17:31.712Z,16.49
2023-04-26T17:19:05.166Z,16.55
2023-04-26T17:20:38.643Z,16.44
2023-04-26T17:22:13.305Z,16.43
2023-04-26T17:23:46.559Z,16.45
2023-04-26T17:25:20.126Z,16.42
2023-04-26T17:26:53.404Z,16.39
2023-04-26T17:28:26.840Z,16.37
2023-04-26T17:29:59.952Z,16.35
2023-04-26T17:31:33.437Z,16.24
2023-04-26T17:33:07.769Z,16.18
2023-04-26T17:34:40.958Z,16.17
2023-04-26T17:36:14.563Z,16.15
2023-04-26T17:37:50.357Z,16.16
2023-04-26T17:39:23.765Z,16.12
2023-04-26T17:40:56.916Z,16.08
2023-04-26T17:42:33.730Z,16.07
2023-04-26T17:44:06.972Z,16.10
2023-04-26T17:45:40.173Z,15.89
2023-04-26T17:47:13.469Z,15.94
2023-04-26T17:48:46.724Z,15.86
2023-04-26T17:50:21.250Z,15.80
2023-04-26T17:51:54.512Z,15.79
2023-04-26T17:53:29.090Z,15.74
2023-04-26T17:55:02.496Z,15.74
2023-04-26T17:56:35.826Z,15.75
2023-04-26T17:58:09.106Z,15.76
2023-04-26T17:59:42.312Z,15.70
2023-04-26T18:01:15.803Z,15.66
2023-04-26T18:02:49.472Z,15.49
2023-04-26T18:04:24.053Z,15.40
2023-04-26T18:05:57.391Z,15.35
2023-04-26T18:07:30.789Z,15.28
2023-04-26T18:09:05.732Z,15.24
2023-04-26T18:10:38.932Z,15.26
2023-04-26T18:12:12.083Z,15.29
2023-04-26T18:13:45.565Z,15.21
2023-04-26T18:15:19.145Z,15.15
2023-04-26T18:16:52.340Z,15.11
2023-04-26T18:18:27.757Z,14.91
2023-04-26T18:20:01.369Z,14.71
2023-04-26T18:21:34.628Z,14.60
2023-04-26T18:23:07.865Z,14.55
2023-04-26T18:24:42.401Z,14.52
2023-04-26T18:26:15.676Z,14.55
2023-04-26T18:27:49.001Z,14.57
2023-04-26T18:29:22.218Z,14.59
2023-04-26T18:30:58.602Z,14.62
2023-04-26T18:32:32.040Z,14.69
2023-04-26T18:34:06.067Z,14.70
2023-04-26T18:35:39.184Z,14.72
2023-04-26T18:37:12.466Z,14.64
2023-04-26T18:38:45.713Z,14.63
2023-04-26T18:40:20.393Z,14.52
2023-04-26T18:41:53.759Z,14.31
2023-04-26T18:43:26.911Z,14.16
2023-04-26T18:45:01.277Z,14.04
2023-04-26T18:46:34.788Z,13.91
2023-04-26T18:48:08.169Z,13.88
2023-04-26T18:49:41.431Z,13.82
2023-04-26T18:51:14.860Z,13.77
2023-04-26T18:52:48.085Z,13.79
2023-04-26T18:54:21.385Z,13.83
2023-04-26T18:55:57.425Z,13.81
2023-04-26T18:57:30.729Z,13.65
2023-04-26T18:59:04.144Z,13.57
2023-04-26T19:00:37.400Z,13.50
2023-04-26T19:02:11.599Z,13.47
2023-04-26T19:03:45.451Z,13.40
2023-04-26T19:05:18.946Z,13.26
2023-04-26T19:06:52.170Z,13.18
2023-04-26T19:08:26.672Z,13.16
2023-04-26T19:10:01.028Z,13.02
2023-04-26T19:11:35.718Z,12.93
2023-04-26T19:13:08.844Z,12.96
2023-04-26T19:14:41.981Z,12.88
2023-04-26T19:16:15.505Z,12.79
2023-04-26T19:17:50.473Z,12.79
2023-04-26T19:19:23.893Z,12.72
2023-04-26T19:20:57.050Z,12.66
2023-04-26T19:22:31.246Z,12.67
2023-04-26T19:24:04.860Z,12.72
2023-04-26T19:25:38.056Z,12.86
2023-04-26T19:27:12.642Z,12.85
2023-04-26T19:28:45.991Z,12.88
2023-04-26T19:30:19.404Z,12.99
2023-04-26T19:31:52.560Z,13.06
2023-04-26T19:33:25.914Z,13.12
2023-04-26T19:34:59.464Z,13.20
2023-04-26T19:36:35.314Z,13.22
2023-04-26T19:38:09.902Z,13.23
2023-04-26T19:39:43.666Z,13.28
2023-04-26T19:41:16.990Z,13.33
2023-04-26T19:42:51.780Z,13.34
2023-04-26T19:44:24.874Z,13.32
2023-04-26T19:45:58.078Z,13.38
2023-04-26T19:47:31.506Z,13.41
2023-04-26T19:49:04.999Z,13.41
2023-04-26T19:50:40.427Z,13.39
2023-04-26T19:52:14.019Z,13.43
2023-04-26T19:53:47.539Z,13.44
2023-04-26T19:55:21.235Z,13.45
2023-04-26T19:56:54.452Z,13.43
2023-04-26T19:58:31.419Z,13.43
2023-04-26T20:00:08.109Z,13.43
2023-04-26T20:01:41.510Z,13.40
2023-04-26T20:03:14.782Z,13.41
2023-04-26T20:04:48.189Z,13.40
2023-04-26T20:06:21.606Z,13.38
2023-04-26T20:07:55.091Z,13.38
2023-04-26T20:09:28.664Z,13.41
2023-04-26T20:11:03.645Z,13.37
2023-04-26T20:12:37.019Z,13.38
2023-04-26T20:14:11.811Z,13.41
2023-04-26T20:15:44.881Z,13.40
2023-04-26T20:17:18.076Z,13.40
2023-04-26T20:18:51.552Z,13.31
2023-04-26T20:20:25.767Z,13.31